createdAt,value
2023-04-18T00:00:17.261Z,12.75
2023-04-18T00:02:45.760Z,16.33
2023-04-18T00:05:13.527Z,13.90
2023-04-18T00:07:41.497Z,9.90
2023-04-18T00:10:09.053Z,14.02
2023-04-18T00:12:36.640Z,13.07
2023-04-18T00:15:04.924Z,16.98
2023-04-18T00:17:44.777Z,18.63
2023-04-18T00:20:12.981Z,22.55
2023-04-18T00:22:42.974Z,13.60
2023-04-18T00:25:11.337Z,13.20
2023-04-18T00:27:39.374Z,14.38
2023-04-18T00:30:08.411Z,17.52
2023-04-18T00:32:39.018Z,15.95
2023-04-18T00:35:06.966Z,12.30
2023-04-18T00:37:34.539Z,14.27
2023-04-18T00:40:02.094Z,18.42
2023-04-18T00:42:31.248Z,16.33
2023-04-18T00:44:58.541Z,13.43
2023-04-18T00:47:26.094Z,12.13
2023-04-18T00:49:53.669Z,13.18
2023-04-18T00:52:21.106Z,14.32
2023-04-18T00:54:48.469Z,13.30
2023-04-18T00:57:15.861Z,12.48
2023-04-18T00:59:43.355Z,15.50
2023-04-18T01:02:10.690Z,13.02
2023-04-18T01:04:38.197Z,10.90
2023-04-18T01:07:06.256Z,15.57
2023-04-18T01:09:33.606Z,10.82
2023-04-18T01:12:01.997Z,13.40
2023-04-18T01:14:29.284Z,15.13
2023-04-18T01:16:57.736Z,11.82
2023-04-18T01:19:25.162Z,11.13
2023-04-18T01:21:53.767Z,14.55
2023-04-18T01:24:21.854Z,19.67
2023-04-18T01:26:49.132Z,20.00
2023-04-18T01:29:16.565Z,15.10
2023-04-18T01:31:43.987Z,16.10
2023-04-18T01:34:11.825Z,11.82
2023-04-18T01:36:42.212Z,15.75
2023-04-18T01:39:13.541Z,16.23
2023-04-18T01:41:42.446Z,17.98
2023-04-18T01:44:10.682Z,14.00
2023-04-18T01:46:39.090Z,14.50
2023-04-18T01:49:06.657Z,15.80
2023-04-18T01:51:34.097Z,16.75
2023-04-18T01:54:01.483Z,15.55
2023-04-18T01:56:28.838Z,19.48
2023-04-18T01:58:58.805Z,15.73
2023-04-18T02:01:26.252Z,14.18
2023-04-18T02:03:54.125Z,14.73
2023-04-18T02:06:21.841Z,17.20
2023-04-18T02:08:49.288Z,13.02
2023-04-18T02:11:16.930Z,16.85
2023-04-18T02:13:44.844Z,14.60
2023-04-18T02:16:13.791Z,15.98
2023-04-18T02:18:44.050Z,14.05
2023-04-18T02:21:12.160Z,11.93
2023-04-18T02:23:40.039Z,15.88
2023-04-18T02:26:07.533Z,14.48
2023-04-18T02:28:34.939Z,13.00
2023-04-18T02:31:04.075Z,12.80
2023-04-18T02:33:35.367Z,15.63
2023-04-18T02:36:02.677Z,13.82
2023-04-18T02:38:30.106Z,14.95
2023-04-18T02:40:57.895Z,17.13
2023-04-18T02:43:25.370Z,16.23
2023-04-18T02:45:52.831Z,14.85
2023-04-18T02:48:20.765Z,13.35
2023-04-18T02:50:48.221Z,17.02
2023-04-18T02:53:17.098Z,13.45
2023-04-18T02:55:52.782Z,11.63
2023-04-18T02:58:23.646Z,12.75
2023-04-18T03:01:08.764Z,12.88
2023-04-18T03:03:49.994Z,15.23
2023-04-18T03:06:29.812Z,17.27
2023-04-18T03:09:01.702Z,11.95
2023-04-18T03:11:29.930Z,12.90
2023-04-18T03:13:57.632Z,11.48
2023-04-18T03:16:29.726Z,14.77
2023-04-18T03:18:57.118Z,14.90
2023-04-18T03:21:24.693Z,12.02
2023-04-18T03:23:53.354Z,11.25
2023-04-18T03:26:23.034Z,13.27
2023-04-18T03:28:51.044Z,12.73
2023-04-18T03:31:18.535Z,11.45
2023-04-18T03:33:46.343Z,12.20
2023-04-18T03:36:17.526Z,11.40
2023-04-18T03:38:45.654Z,10.73
2023-04-18T03:41:13.265Z,10.52
2023-04-18T03:43:40.657Z,11.95
2023-04-18T03:46:08.062Z,10.38
2023-04-18T03:48:37.547Z,12.57
2023-04-18T03:51:09.668Z,11.07
2023-04-18T03:53:38.403Z,8.90
2023-04-18T03:56:06.072Z,11.48
2023-04-18T03:58:47.876Z,12.00
2023-04-18T04:01:15.305Z,9.43
2023-04-18T04:03:42.997Z,12.15
2023-04-18T04:06:10.613Z,11.07
2023-04-18T04:08:37.994Z,12.35
2023-04-18T04:11:05.519Z,12.40
2023-04-18T04:13:33.850Z,11.27
2023-04-18T04:16:01.683Z,10.40
2023-04-18T04:18:31.479Z,9.98
2023-04-18T04:23:42.713Z,11.68
2023-04-18T04:26:15.278Z,12.60
2023-04-18T04:28:51.942Z,12.48
2023-04-18T04:31:24.118Z,10.05
2023-04-18T04:33:51.490Z,12.52
2023-04-18T04:36:23.332Z,9.02
2023-04-18T04:38:52.664Z,17.35
2023-04-18T04:41:27.972Z,8.45
2023-04-18T04:43:55.615Z,8.18
2023-04-18T04:46:30.626Z,13.05
2023-04-18T04:49:00.947Z,13.13
2023-04-18T04:51:28.320Z,16.13
2023-04-18T04:53:56.551Z,8.98
2023-04-18T04:56:24.396Z,8.38
2023-04-18T04:58:53.290Z,9.57
2023-04-18T05:01:25.229Z,9.95
2023-04-18T05:03:52.937Z,10.30
2023-04-18T05:06:22.717Z,11.20
2023-04-18T05:08:51.147Z,13.30
2023-04-18T05:11:18.647Z,12.20
2023-04-18T05:13:46.064Z,14.05
2023-04-18T05:16:13.520Z,17.50
2023-04-18T05:18:41.649Z,12.55
2023-04-18T05:21:09.245Z,9.25
2023-04-18T05:23:37.392Z,13.27
2023-04-18T05:26:05.790Z,13.23
2023-04-18T05:28:33.608Z,14.07
2023-04-18T05:31:01.717Z,18.85
2023-04-18T05:33:30.115Z,12.98
2023-04-18T05:35:58.160Z,12.25
2023-04-18T05:38:25.833Z,18.83
2023-04-18T05:40:55.903Z,14.07
2023-04-18T05:43:23.621Z,16.35
2023-04-18T05:45:52.834Z,23.45
2023-04-18T05:48:21.632Z,16.90
2023-04-18T05:50:48.956Z,15.95
2023-04-18T05:53:16.534Z,14.38
2023-04-18T05:55:46.570Z,18.92
2023-04-18T05:58:13.957Z,16.63
2023-04-18T06:00:42.886Z,23.42
2023-04-18T06:03:11.290Z,16.33
2023-04-18T06:05:41.242Z,14.00
2023-04-18T06:08:08.705Z,17.90
2023-04-18T06:10:37.730Z,16.38
2023-04-18T06:13:06.629Z,15.10
2023-04-18T06:15:35.367Z,14.00
2023-04-18T06:18:02.936Z,15.18
2023-04-18T06:20:30.422Z,20.08
2023-04-18T06:22:57.829Z,15.63
2023-04-18T06:25:25.375Z,12.18
2023-04-18T06:27:52.664Z,13.45
2023-04-18T06:30:22.216Z,12.63
2023-04-18T06:32:49.773Z,15.02
2023-04-18T06:35:17.433Z,10.30
2023-04-18T06:37:45.262Z,15.63
2023-04-18T06:40:12.920Z,13.68
2023-04-18T06:42:40.468Z,11.75
2023-04-18T06:45:08.247Z,15.90
2023-04-18T06:47:35.647Z,13.07
2023-04-18T06:50:03.077Z,10.38
2023-04-18T06:52:30.827Z,13.73
2023-04-18T06:54:58.225Z,9.18
2023-04-18T06:57:26.322Z,12.18
2023-04-18T06:59:53.670Z,9.65
2023-04-18T07:02:21.133Z,14.55
2023-04-18T07:04:48.567Z,16.42
2023-04-18T07:07:16.135Z,10.85
2023-04-18T07:09:43.546Z,9.25
2023-04-18T07:12:11.128Z,11.75
2023-04-18T07:14:39.074Z,11.77
2023-04-18T07:17:06.649Z,16.58
2023-04-18T07:19:34.025Z,8.82
2023-04-18T07:22:01.623Z,9.82
2023-04-18T07:24:29.299Z,9.98
2023-04-18T07:26:57.349Z,14.95
2023-04-18T07:29:24.703Z,10.70
2023-04-18T07:31:52.276Z,8.90
2023-04-18T07:34:19.660Z,12.75
2023-04-18T07:36:46.991Z,8.25
2023-04-18T07:39:14.575Z,6.47
2023-04-18T07:41:42.034Z,7.65
2023-04-18T07:44:09.429Z,8.27
2023-04-18T07:46:36.963Z,7.47
2023-04-18T07:49:04.938Z,8.15
2023-04-18T07:51:32.734Z,8.13
2023-04-18T07:54:00.131Z,8.25
2023-04-18T07:56:28.442Z,8.25
2023-04-18T07:58:55.956Z,8.27
2023-04-18T08:01:24.998Z,7.55
2023-04-18T08:03:54.452Z,9.07
2023-04-18T08:06:21.920Z,10.25
2023-04-18T08:08:49.292Z,9.10
2023-04-18T08:11:16.829Z,11.55
2023-04-18T08:13:44.255Z,9.32
2023-04-18T08:16:11.718Z,9.13
2023-04-18T08:18:39.101Z,8.68
2023-04-18T08:21:06.477Z,6.40
2023-04-18T08:23:33.859Z,10.45
2023-04-18T08:26:01.249Z,8.60
2023-04-18T08:28:28.651Z,10.13
2023-04-18T08:30:56.807Z,8.60
2023-04-18T08:33:24.789Z,9.38
2023-04-18T08:35:52.488Z,8.32
2023-04-18T08:38:19.966Z,7.63
2023-04-18T08:40:47.885Z,9.63
2023-04-18T08:43:16.001Z,9.95
2023-04-18T08:45:44.693Z,10.02
2023-04-18T08:48:14.108Z,13.02
2023-04-18T08:50:42.248Z,11.95
2023-04-18T08:53:10.111Z,10.48
2023-04-18T08:55:37.900Z,14.95
2023-04-18T08:58:07.090Z,12.15
2023-04-18T09:00:35.430Z,11.68
2023-04-18T09:03:04.142Z,11.40
2023-04-18T09:05:31.837Z,11.82
2023-04-18T09:07:59.345Z,15.82
2023-04-18T09:13:04.604Z,14.85
2023-04-18T09:15:32.704Z,15.05
2023-04-18T09:18:03.081Z,19.80
2023-04-18T09:20:41.614Z,16.60
2023-04-18T09:23:11.515Z,12.10
2023-04-18T09:28:33.553Z,13.20
2023-04-18T09:31:17.511Z,14.73
2023-04-18T09:33:57.160Z,14.60
2023-04-18T09:36:28.127Z,14.38
2023-04-18T09:38:57.073Z,11.75
2023-04-18T09:41:24.913Z,13.55
2023-04-18T09:44:12.371Z,17.27
2023-04-18T09:46:42.017Z,14.73
2023-04-18T09:49:11.118Z,13.35
2023-04-18T09:51:40.618Z,13.32
2023-04-18T09:54:09.774Z,12.77
2023-04-18T09:56:38.382Z,11.93
2023-04-18T09:59:10.186Z,15.50
2023-04-18T10:01:38.624Z,12.98
2023-04-18T10:04:08.194Z,12.00
2023-04-18T10:06:40.065Z,11.60
2023-04-18T10:09:08.991Z,12.93
2023-04-18T10:11:36.822Z,11.80
2023-04-18T10:14:08.005Z,13.43
2023-04-18T10:16:36.444Z,9.73
2023-04-18T10:19:25.392Z,13.48
2023-04-18T10:21:54.319Z,11.32
2023-04-18T10:24:50.159Z,15.63
2023-04-18T10:27:18.447Z,11.60
2023-04-18T10:34:54.490Z,14.15
2023-04-18T10:37:21.961Z,11.70
2023-04-18T10:39:58.609Z,16.58
2023-04-18T10:47:51.787Z,13.57
2023-04-18T10:50:19.172Z,11.25
2023-04-18T10:52:46.473Z,9.57
2023-04-18T10:55:19.305Z,11.23
2023-04-18T10:57:48.998Z,13.65
2023-04-18T11:00:19.228Z,10.32
2023-04-18T11:02:52.104Z,12.30
2023-04-18T11:05:24.397Z,14.57
2023-04-18T11:07:51.894Z,11.95
2023-04-18T11:10:22.275Z,8.90
2023-04-18T11:12:49.923Z,10.10
2023-04-18T11:15:22.377Z,10.07
2023-04-18T11:18:06.276Z,10.57
2023-04-18T11:20:47.747Z,9.85
2023-04-18T11:30:52.541Z,12.30
2023-04-18T11:33:20.072Z,10.40
2023-04-18T11:35:47.773Z,11.95
2023-04-18T11:38:16.365Z,11.05
2023-04-18T11:40:51.399Z,9.98
2023-04-18T11:43:26.597Z,10.95
2023-04-18T11:45:56.463Z,12.93
2023-04-18T11:48:24.556Z,11.40
2023-04-18T11:50:52.403Z,10.48
2023-04-18T11:53:39.944Z,10.15
2023-04-18T11:56:07.759Z,9.93
2023-04-18T11:58:36.553Z,8.80
2023-04-18T12:01:20.712Z,8.82
2023-04-18T12:04:06.991Z,8.25
2023-04-18T12:06:51.801Z,9.25
2023-04-18T12:09:21.494Z,9.15
2023-04-18T12:12:05.493Z,10.20
2023-04-18T12:14:36.031Z,8.80
2023-04-18T12:17:03.987Z,10.70
2023-04-18T12:19:31.800Z,11.60
2023-04-18T12:22:01.258Z,9.02
2023-04-18T12:24:30.617Z,14.48
2023-04-18T12:26:58.921Z,13.55
2023-04-18T12:29:27.152Z,10.65
2023-04-18T12:31:54.605Z,13.45
2023-04-18T12:34:22.326Z,11.70
2023-04-18T12:36:49.802Z,10.80
2023-04-18T12:39:17.196Z,8.98
2023-04-18T12:41:44.601Z,10.63
2023-04-18T12:44:12.936Z,12.57
2023-04-18T12:46:40.377Z,9.77
2023-04-18T12:49:08.551Z,13.38
2023-04-18T12:51:51.783Z,11.57
2023-04-18T12:54:36.751Z,9.77
2023-04-18T12:57:05.336Z,8.75
2023-04-18T12:59:32.671Z,11.70
2023-04-18T13:02:00.204Z,13.55
2023-04-18T13:04:28.094Z,12.50
2023-04-18T13:06:55.598Z,13.32
2023-04-18T13:09:54.820Z,10.40
2023-04-18T13:12:22.310Z,10.27
2023-04-18T13:14:49.689Z,13.07
2023-04-18T13:17:17.020Z,11.95
2023-04-18T13:19:44.512Z,15.13
2023-04-18T13:22:12.086Z,16.75
2023-04-18T13:24:55.235Z,17.95
2023-04-18T13:27:41.420Z,14.27
2023-04-18T13:30:12.097Z,16.75
2023-04-18T13:32:55.451Z,15.32
2023-04-18T13:35:22.936Z,14.35
2023-04-18T13:37:50.395Z,13.80
2023-04-18T13:40:17.839Z,12.52
2023-04-18T13:42:45.951Z,12.50
2023-04-18T13:45:13.401Z,9.88
2023-04-18T13:47:41.099Z,9.90
2023-04-18T13:50:09.282Z,12.48
2023-04-18T13:52:36.745Z,10.73
2023-04-18T13:55:04.473Z,11.88
2023-04-18T13:57:34.584Z,14.25
2023-04-18T14:00:02.153Z,8.63
2023-04-18T14:02:51.093Z,12.18
2023-04-18T14:05:18.817Z,9.35
2023-04-18T14:07:46.214Z,11.32
2023-04-18T14:10:13.663Z,9.02
2023-04-18T14:12:41.255Z,8.85
2023-04-18T14:15:09.467Z,9.98
2023-04-18T14:17:36.983Z,9.32
2023-04-18T14:20:05.276Z,28.55
2023-04-18T14:22:32.801Z,93.15
2023-04-18T14:25:00.177Z,62.22
2023-04-18T14:30:11.663Z,16.42
2023-04-18T14:32:39.217Z,11.75
2023-04-18T14:38:05.108Z,14.80
2023-04-18T14:40:33.135Z,23.20
2023-04-18T14:43:16.353Z,23.98
2023-04-18T14:45:43.781Z,21.50
2023-04-18T14:48:11.273Z,27.98
2023-04-18T14:50:38.979Z,26.30
2023-04-18T14:53:06.823Z,25.10
2023-04-18T14:55:34.747Z,27.25
2023-04-18T14:58:02.159Z,38.47
2023-04-18T15:00:30.452Z,41.03
2023-04-18T15:02:58.022Z,36.78
2023-04-18T15:05:45.283Z,21.58
2023-04-18T15:08:14.736Z,30.77
2023-04-18T15:10:58.454Z,58.00
2023-04-18T15:13:25.945Z,94.97
2023-04-18T15:15:54.533Z,83.75
2023-04-18T15:18:37.992Z,30.35
2023-04-18T15:21:05.655Z,15.07
2023-04-18T15:23:34.333Z,17.02
2023-04-18T15:26:01.761Z,24.60
2023-04-18T15:28:29.105Z,18.95
2023-04-18T15:30:56.489Z,19.50
2023-04-18T15:33:25.411Z,15.95
2023-04-18T15:35:52.844Z,12.07
2023-04-18T15:38:20.193Z,12.30
2023-04-18T15:41:03.237Z,9.57
2023-04-18T15:43:30.611Z,9.07
2023-04-18T15:46:14.018Z,9.45
2023-04-18T15:48:41.499Z,9.35
2023-04-18T15:51:08.908Z,7.20
2023-04-18T15:53:36.365Z,7.80
2023-04-18T15:59:05.461Z,5.85
2023-04-18T16:01:33.516Z,8.43
2023-04-18T16:04:01.235Z,6.40
2023-04-18T16:06:30.031Z,7.85
2023-04-18T16:08:58.126Z,9.82
2023-04-18T16:11:26.790Z,11.27
2023-04-18T16:13:56.137Z,9.60
2023-04-18T16:16:43.569Z,8.05
2023-04-18T16:19:26.765Z,8.27
2023-04-18T16:21:54.081Z,8.30
2023-04-18T16:24:21.470Z,8.40
2023-04-18T16:26:48.890Z,7.60
2023-04-18T16:29:16.277Z,8.32
2023-04-18T16:31:59.318Z,10.70
2023-04-18T16:34:26.644Z,10.68
2023-04-18T16:36:55.609Z,11.18
2023-04-18T16:39:23.164Z,8.75
2023-04-18T16:41:51.363Z,12.13
2023-04-18T16:44:18.751Z,10.43
2023-04-18T16:46:46.286Z,9.90
2023-04-18T16:49:13.972Z,9.10
2023-04-18T16:51:41.362Z,10.73
2023-04-18T16:54:09.135Z,10.75
2023-04-18T16:56:36.499Z,10.60
2023-04-18T16:59:04.379Z,13.07
2023-04-18T17:01:32.186Z,10.13
2023-04-18T17:03:59.645Z,13.10
2023-04-18T17:06:27.512Z,13.90
2023-04-18T17:08:54.984Z,10.18
2023-04-18T17:11:22.381Z,12.25
2023-04-18T17:13:51.560Z,13.43
2023-04-18T17:16:19.030Z,10.75
2023-04-18T17:18:46.412Z,9.80
2023-04-18T17:21:29.527Z,14.73
2023-04-18T17:23:59.422Z,10.25
2023-04-18T17:26:28.080Z,9.52
2023-04-18T17:28:55.380Z,13.77
2023-04-18T17:31:22.939Z,12.30
2023-04-18T17:33:51.517Z,9.95
2023-04-18T17:36:18.907Z,11.75
2023-04-18T17:38:49.134Z,12.77
2023-04-18T17:41:18.130Z,12.23
2023-04-18T17:43:46.047Z,14.32
2023-04-18T17:46:14.084Z,14.60
2023-04-18T17:48:41.772Z,10.95
2023-04-18T17:51:09.438Z,10.02
2023-04-18T17:53:36.887Z,10.88
2023-04-18T17:56:04.630Z,12.80
2023-04-18T17:58:32.237Z,13.07
2023-04-18T18:00:59.681Z,12.65
2023-04-18T18:03:27.276Z,11.27
2023-04-18T18:05:55.935Z,14.25
2023-04-18T18:08:23.346Z,15.15
2023-04-18T18:10:50.880Z,11.38
2023-04-18T18:13:18.381Z,13.18
2023-04-18T18:15:45.807Z,12.70
2023-04-18T18:18:27.276Z,11.00
2023-04-18T18:20:54.708Z,18.40
2023-04-18T18:23:22.403Z,14.15
2023-04-18T18:25:50.909Z,14.20
2023-04-18T18:28:18.425Z,11.52
2023-04-18T18:30:45.899Z,11.57
2023-04-18T18:33:13.673Z,10.48
2023-04-18T18:35:41.060Z,9.45
2023-04-18T18:38:08.471Z,12.60
2023-04-18T18:40:35.893Z,10.07
2023-04-18T18:43:03.331Z,12.75
2023-04-18T18:45:30.719Z,9.80
2023-04-18T18:47:58.130Z,9.95
2023-04-18T18:50:25.544Z,11.70
2023-04-18T18:52:52.894Z,15.10
2023-04-18T18:55:20.264Z,10.68
2023-04-18T18:57:48.560Z,13.40
2023-04-18T19:00:16.638Z,13.95
2023-04-18T19:02:44.160Z,13.55
2023-04-18T19:05:12.916Z,10.52
2023-04-18T19:07:43.969Z,12.48
2023-04-18T19:10:11.507Z,13.30
2023-04-18T19:12:39.038Z,12.13
2023-04-18T19:15:07.209Z,10.55
2023-04-18T19:17:37.458Z,8.35
2023-04-18T19:20:08.403Z,12.77
2023-04-18T19:22:41.967Z,9.57
2023-04-18T19:25:17.010Z,10.25
2023-04-18T19:27:54.455Z,10.65
2023-04-18T19:30:33.037Z,9.52
2023-04-18T19:33:06.831Z,9.68
2023-04-18T19:35:38.214Z,9.60
2023-04-18T19:38:10.386Z,8.57
2023-04-18T19:40:44.610Z,8.10
2023-04-18T19:43:18.748Z,9.55
2023-04-18T19:45:50.946Z,10.10
2023-04-18T19:48:23.845Z,8.25
2023-04-18T19:51:01.251Z,10.32
2023-04-18T19:53:34.509Z,11.48
2023-04-18T19:56:08.535Z,7.95
2023-04-18T19:58:46.868Z,7.32
2023-04-18T20:01:24.127Z,6.88
2023-04-18T20:03:56.945Z,8.52
2023-04-18T20:06:33.926Z,8.10
2023-04-18T20:09:06.279Z,9.30
2023-04-18T20:11:36.451Z,7.57
2023-04-18T20:14:05.336Z,8.30
2023-04-18T20:16:34.169Z,9.55
2023-04-18T20:19:04.086Z,10.38
2023-04-18T20:21:33.843Z,8.55
2023-04-18T20:24:04.961Z,8.60
2023-04-18T20:26:34.246Z,10.77
2023-04-18T20:29:04.496Z,11.68
2023-04-18T20:31:36.659Z,7.63
2023-04-18T20:34:05.070Z,6.68
2023-04-18T20:36:51.447Z,10.10
2023-04-18T20:39:22.842Z,7.38
2023-04-18T20:41:55.386Z,9.95
2023-04-18T20:44:26.297Z,7.35
2023-04-18T20:47:10.770Z,8.30
2023-04-18T20:49:39.821Z,9.10
2023-04-18T20:52:09.871Z,6.20
2023-04-18T20:54:37.387Z,10.02
2023-04-18T20:57:20.650Z,8.48
2023-04-18T21:00:07.000Z,7.53
2023-04-18T21:02:59.935Z,8.60
2023-04-18T21:05:27.805Z,8.05
2023-04-18T21:07:55.360Z,10.60
2023-04-18T21:10:23.005Z,10.95
2023-04-18T21:12:50.710Z,8.93
2023-04-18T21:15:18.364Z,8.85
2023-04-18T21:18:01.581Z,9.75
2023-04-18T21:20:44.724Z,8.68
2023-04-18T21:23:13.533Z,9.38
2023-04-18T21:25:56.677Z,8.68
2023-04-18T21:28:24.051Z,7.07
2023-04-18T21:30:51.519Z,9.93
2023-04-18T21:33:19.614Z,10.57
2023-04-18T21:35:47.039Z,10.27
2023-04-18T21:38:14.495Z,8.95
2023-04-18T21:41:17.467Z,10.43
2023-04-18T21:44:00.722Z,8.70
2023-04-18T21:46:28.221Z,11.00
2023-04-18T21:49:11.230Z,10.38
2023-04-18T21:51:38.774Z,13.57
2023-04-18T21:54:08.018Z,11.82
2023-04-18T21:57:06.965Z,15.63
2023-04-18T21:59:34.369Z,12.25
2023-04-18T22:02:17.475Z,13.52
2023-04-18T22:04:44.954Z,13.73
2023-04-18T22:07:12.750Z,15.07
2023-04-18T22:09:40.110Z,15.55
2023-04-18T22:12:24.762Z,12.77
2023-04-18T22:15:08.262Z,12.43
2023-04-18T22:17:37.385Z,12.43
2023-04-18T22:20:21.846Z,12.68
2023-04-18T22:22:49.288Z,14.05
2023-04-18T22:25:16.757Z,9.43
2023-04-18T22:27:45.361Z,12.48
2023-04-18T22:30:13.731Z,10.07
2023-04-18T22:32:41.996Z,7.85
2023-04-18T22:35:09.887Z,12.63
2023-04-18T22:37:37.330Z,11.50
2023-04-18T22:40:06.315Z,9.00
2023-04-18T22:42:33.958Z,12.23
2023-04-18T22:45:01.961Z,12.65
2023-04-18T22:47:31.880Z,17.27
2023-04-18T22:49:59.292Z,14.07
2023-04-18T22:52:26.709Z,12.40
2023-04-18T22:54:54.117Z,12.82
2023-04-18T22:57:22.019Z,19.80
2023-04-18T22:59:49.383Z,14.45
2023-04-18T23:02:16.858Z,11.85
2023-04-18T23:04:46.419Z,12.13
2023-04-18T23:07:13.941Z,12.80
2023-04-18T23:09:41.330Z,13.25
2023-04-18T23:12:08.765Z,12.77
2023-04-18T23:14:36.311Z,14.13
2023-04-18T23:17:03.634Z,13.40
2023-04-18T23:19:31.005Z,15.95
2023-04-18T23:21:58.389Z,18.17
2023-04-18T23:24:25.758Z,14.98
2023-04-18T23:26:53.305Z,13.52
2023-04-18T23:29:20.604Z,9.90
2023-04-18T23:31:48.022Z,9.00
2023-04-18T23:34:15.781Z,8.50
2023-04-18T23:36:43.359Z,6.65
2023-04-18T23:39:10.678Z,7.75
2023-04-18T23:41:38.013Z,9.27
2023-04-18T23:44:06.013Z,7.63
2023-04-18T23:46:35.072Z,7.10
2023-04-18T23:49:03.752Z,8.55
2023-04-18T23:51:31.320Z,9.18
2023-04-18T23:53:58.662Z,9.23
2023-04-18T23:56:26.655Z,6.75
2023-04-18T23:58:54.334Z,7.68
